Terminal Aerodrome Forecast
Issued by NWS

Home | Current Version | Previous Version | Text Only | Print | Product List | Glossary On
Versions: 1 2 3 4 5 6 7 8 9 10 11 12 13 14 15
000
FTUS41 KBGM 190536
TAFITH
TAF
KITH 190536Z 1906/2006 06005KT P6SM BKN200
     FM191300 13007KT P6SM OVC200
     FM191800 17012KT P6SM OVC200
     FM192300 14015KT P6SM OVC120=

USA.gov is the U.S. government's official web portal to all federal, state and local government web resources and services.